sensor_id;sensor_type;location;lat;lon;timestamp;P1;durP1;ratioP1;P2;durP2;ratioP2
15958;SDS011;8078;47.822;9.402;2023-05-16T00:01:37;3.05;;;2.75;;
15958;SDS011;8078;47.822;9.402;2023-05-16T00:04:03;2.90;;;2.40;;
15958;SDS011;8078;47.822;9.402;2023-05-16T00:06:29;3.13;;;2.83;;
15958;SDS011;8078;47.822;9.402;2023-05-16T00:08:55;3.08;;;2.55;;
15958;SDS011;8078;47.822;9.402;2023-05-16T00:11:21;2.67;;;2.47;;
15958;SDS011;8078;47.822;9.402;2023-05-16T00:13:47;2.40;;;2.20;;
15958;SDS011;8078;47.822;9.402;2023-05-16T00:16:13;3.20;;;2.97;;
15958;SDS011;8078;47.822;9.402;2023-05-16T00:18:39;2.63;;;2.42;;
15958;SDS011;8078;47.822;9.402;2023-05-16T00:21:04;2.45;;;2.25;;
15958;SDS011;8078;47.822;9.402;2023-05-16T00:23:30;2.40;;;2.20;;
15958;SDS011;8078;47.822;9.402;2023-05-16T00:25:56;2.50;;;2.30;;
15958;SDS011;8078;47.822;9.402;2023-05-16T00:28:22;2.47;;;2.28;;
15958;SDS011;8078;47.822;9.402;2023-05-16T00:30:48;2.20;;;2.10;;
15958;SDS011;8078;47.822;9.402;2023-05-16T00:33:13;2.88;;;2.30;;
15958;SDS011;8078;47.822;9.402;2023-05-16T00:35:39;2.63;;;2.42;;
15958;SDS011;8078;47.822;9.402;2023-05-16T00:38:04;2.40;;;2.20;;
15958;SDS011;8078;47.822;9.402;2023-05-16T00:40:30;2.40;;;2.20;;
15958;SDS011;8078;47.822;9.402;2023-05-16T00:42:56;2.72;;;2.53;;
15958;SDS011;8078;47.822;9.402;2023-05-16T00:45:22;2.90;;;2.60;;
15958;SDS011;8078;47.822;9.402;2023-05-16T00:47:48;3.08;;;2.55;;
15958;SDS011;8078;47.822;9.402;2023-05-16T00:50:14;4.05;;;3.30;;
15958;SDS011;8078;47.822;9.402;2023-05-16T00:52:40;4.85;;;3.30;;
15958;SDS011;8078;47.822;9.402;2023-05-16T00:55:06;2.90;;;2.50;;
15958;SDS011;8078;47.822;9.402;2023-05-16T00:57:34;4.47;;;3.00;;
15958;SDS011;8078;47.822;9.402;2023-05-16T01:00:00;7.30;;;3.50;;
15958;SDS011;8078;47.822;9.402;2023-05-16T01:02:26;4.28;;;3.33;;
15958;SDS011;8078;47.822;9.402;2023-05-16T01:04:53;3.38;;;3.00;;
15958;SDS011;8078;47.822;9.402;2023-05-16T01:07:19;3.75;;;3.35;;
15958;SDS011;8078;47.822;9.402;2023-05-16T01:09:45;4.15;;;3.33;;
15958;SDS011;8078;47.822;9.402;2023-05-16T01:28:40;4.25;;;3.85;;
15958;SDS011;8078;47.822;9.402;2023-05-16T01:31:07;4.50;;;4.10;;
15958;SDS011;8078;47.822;9.402;2023-05-16T01:33:33;4.50;;;4.10;;
15958;SDS011;8078;47.822;9.402;2023-05-16T01:36:02;4.75;;;4.03;;
15958;SDS011;8078;47.822;9.402;2023-05-16T01:38:32;6.43;;;4.40;;
15958;SDS011;8078;47.822;9.402;2023-05-16T01:43:43;4.80;;;4.30;;
15958;SDS011;8078;47.822;9.402;2023-05-16T01:46:17;5.20;;;4.70;;
15958;SDS011;8078;47.822;9.402;2023-05-16T01:49:04;6.20;;;4.93;;
15958;SDS011;8078;47.822;9.402;2023-05-16T01:51:40;4.90;;;4.40;;
15958;SDS011;8078;47.822;9.402;2023-05-16T01:54:10;6.20;;;4.67;;
15958;SDS011;8078;47.822;9.402;2023-05-16T01:56:37;5.93;;;4.83;;
15958;SDS011;8078;47.822;9.402;2023-05-16T01:59:05;5.03;;;4.53;;
15958;SDS011;8078;47.822;9.402;2023-05-16T02:01:32;5.47;;;4.93;;
15958;SDS011;8078;47.822;9.402;2023-05-16T02:03:58;5.40;;;4.70;;
15958;SDS011;8078;47.822;9.402;2023-05-16T02:06:24;5.97;;;5.00;;
15958;SDS011;8078;47.822;9.402;2023-05-16T02:08:50;6.00;;;5.20;;
15958;SDS011;8078;47.822;9.402;2023-05-16T02:11:16;5.77;;;4.70;;
15958;SDS011;8078;47.822;9.402;2023-05-16T02:13:41;5.80;;;5.23;;
15958;SDS011;8078;47.822;9.402;2023-05-16T02:16:09;5.47;;;4.97;;
15958;SDS011;8078;47.822;9.402;2023-05-16T02:18:35;5.80;;;4.73;;
15958;SDS011;8078;47.822;9.402;2023-05-16T02:21:00;5.67;;;5.03;;
15958;SDS011;8078;47.822;9.402;2023-05-16T02:23:26;6.90;;;5.00;;
15958;SDS011;8078;47.822;9.402;2023-05-16T02:25:52;6.70;;;5.20;;
15958;SDS011;8078;47.822;9.402;2023-05-16T02:28:17;6.23;;;5.63;;
15958;SDS011;8078;47.822;9.402;2023-05-16T02:30:43;7.47;;;5.50;;
15958;SDS011;8078;47.822;9.402;2023-05-16T02:33:08;7.50;;;6.43;;
15958;SDS011;8078;47.822;9.402;2023-05-16T02:35:35;8.87;;;6.20;;
15958;SDS011;8078;47.822;9.402;2023-05-16T02:38:00;8.37;;;6.47;;
15958;SDS011;8078;47.822;9.402;2023-05-16T02:40:26;7.67;;;6.27;;
15958;SDS011;8078;47.822;9.402;2023-05-16T02:42:52;8.47;;;6.43;;
15958;SDS011;8078;47.822;9.402;2023-05-16T02:45:17;8.40;;;6.70;;
15958;SDS011;8078;47.822;9.402;2023-05-16T02:47:43;11.33;;;6.70;;
15958;SDS011;8078;47.822;9.402;2023-05-16T02:50:08;11.40;;;7.53;;
15958;SDS011;8078;47.822;9.402;2023-05-16T02:52:34;9.63;;;7.60;;
15958;SDS011;8078;47.822;9.402;2023-05-16T02:55:00;8.87;;;7.10;;
15958;SDS011;8078;47.822;9.402;2023-05-16T02:57:25;10.80;;;8.20;;
15958;SDS011;8078;47.822;9.402;2023-05-16T02:59:51;9.27;;;7.03;;
15958;SDS011;8078;47.822;9.402;2023-05-16T03:02:16;9.77;;;7.60;;
15958;SDS011;8078;47.822;9.402;2023-05-16T03:04:42;11.30;;;8.60;;
15958;SDS011;8078;47.822;9.402;2023-05-16T03:07:07;11.43;;;8.30;;
15958;SDS011;8078;47.822;9.402;2023-05-16T03:09:33;11.50;;;8.63;;
15958;SDS011;8078;47.822;9.402;2023-05-16T03:11:58;10.10;;;8.70;;
15958;SDS011;8078;47.822;9.402;2023-05-16T03:14:24;12.40;;;9.23;;
15958;SDS011;8078;47.822;9.402;2023-05-16T03:16:49;15.90;;;11.37;;
15958;SDS011;8078;47.822;9.402;2023-05-16T03:19:15;12.90;;;9.93;;
15958;SDS011;8078;47.822;9.402;2023-05-16T03:21:41;14.00;;;10.27;;
15958;SDS011;8078;47.822;9.402;2023-05-16T03:24:07;19.80;;;12.40;;
15958;SDS011;8078;47.822;9.402;2023-05-16T03:26:32;17.03;;;11.17;;
15958;SDS011;8078;47.822;9.402;2023-05-16T03:28:58;19.13;;;12.00;;
15958;SDS011;8078;47.822;9.402;2023-05-16T03:31:23;17.87;;;12.63;;
15958;SDS011;8078;47.822;9.402;2023-05-16T03:33:49;16.90;;;11.67;;
15958;SDS011;8078;47.822;9.402;2023-05-16T03:36:15;17.10;;;11.80;;
15958;SDS011;8078;47.822;9.402;2023-05-16T03:38:40;17.67;;;11.70;;
15958;SDS011;8078;47.822;9.402;2023-05-16T03:41:06;17.20;;;11.20;;
15958;SDS011;8078;47.822;9.402;2023-05-16T03:43:32;15.60;;;11.00;;
15958;SDS011;8078;47.822;9.402;2023-05-16T03:45:57;14.70;;;10.77;;
15958;SDS011;8078;47.822;9.402;2023-05-16T03:48:25;14.23;;;10.90;;
15958;SDS011;8078;47.822;9.402;2023-05-16T03:50:51;19.43;;;10.83;;
15958;SDS011;8078;47.822;9.402;2023-05-16T03:53:16;15.90;;;12.07;;
15958;SDS011;8078;47.822;9.402;2023-05-16T03:55:42;18.13;;;11.83;;
15958;SDS011;8078;47.822;9.402;2023-05-16T03:58:07;19.57;;;13.10;;
15958;SDS011;8078;47.822;9.402;2023-05-16T04:00:33;19.67;;;13.00;;
15958;SDS011;8078;47.822;9.402;2023-05-16T04:03:00;20.27;;;13.27;;
15958;SDS011;8078;47.822;9.402;2023-05-16T04:05:26;24.70;;;14.23;;
15958;SDS011;8078;47.822;9.402;2023-05-16T04:07:52;19.73;;;13.37;;
15958;SDS011;8078;47.822;9.402;2023-05-16T04:10:17;20.60;;;13.30;;
15958;SDS011;8078;47.822;9.402;2023-05-16T04:12:43;18.17;;;13.07;;
15958;SDS011;8078;47.822;9.402;2023-05-16T04:15:08;18.93;;;12.73;;
15958;SDS011;8078;47.822;9.402;2023-05-16T04:17:34;20.77;;;14.27;;
15958;SDS011;8078;47.822;9.402;2023-05-16T04:20:00;21.70;;;14.83;;
15958;SDS011;8078;47.822;9.402;2023-05-16T04:22:26;21.60;;;14.63;;
15958;SDS011;8078;47.822;9.402;2023-05-16T04:24:51;25.87;;;15.37;;
15958;SDS011;8078;47.822;9.402;2023-05-16T04:27:17;22.53;;;15.40;;
15958;SDS011;8078;47.822;9.402;2023-05-16T04:29:42;23.13;;;16.07;;
15958;SDS011;8078;47.822;9.402;2023-05-16T04:32:08;24.37;;;16.50;;
15958;SDS011;8078;47.822;9.402;2023-05-16T04:34:35;24.70;;;17.00;;
15958;SDS011;8078;47.822;9.402;2023-05-16T04:37:04;25.23;;;16.33;;
15958;SDS011;8078;47.822;9.402;2023-05-16T04:39:31;26.67;;;18.13;;
15958;SDS011;8078;47.822;9.402;2023-05-16T04:41:58;30.87;;;18.67;;
15958;SDS011;8078;47.822;9.402;2023-05-16T04:44:24;34.43;;;19.90;;
15958;SDS011;8078;47.822;9.402;2023-05-16T04:46:50;33.63;;;20.17;;
15958;SDS011;8078;47.822;9.402;2023-05-16T04:49:17;34.30;;;19.47;;
15958;SDS011;8078;47.822;9.402;2023-05-16T04:51:43;33.00;;;20.23;;
15958;SDS011;8078;47.822;9.402;2023-05-16T04:54:09;30.37;;;18.97;;
15958;SDS011;8078;47.822;9.402;2023-05-16T04:56:34;32.07;;;20.00;;
15958;SDS011;8078;47.822;9.402;2023-05-16T04:59:00;32.07;;;20.43;;
15958;SDS011;8078;47.822;9.402;2023-05-16T05:01:26;31.40;;;19.30;;
15958;SDS011;8078;47.822;9.402;2023-05-16T05:03:52;34.70;;;17.23;;
15958;SDS011;8078;47.822;9.402;2023-05-16T05:06:17;31.97;;;19.10;;
15958;SDS011;8078;47.822;9.402;2023-05-16T05:08:43;27.20;;;17.27;;
15958;SDS011;8078;47.822;9.402;2023-05-16T05:11:08;24.67;;;16.20;;
15958;SDS011;8078;47.822;9.402;2023-05-16T05:13:34;28.47;;;17.43;;
15958;SDS011;8078;47.822;9.402;2023-05-16T05:15:59;30.80;;;17.87;;
15958;SDS011;8078;47.822;9.402;2023-05-16T05:18:28;33.33;;;19.97;;
15958;SDS011;8078;47.822;9.402;2023-05-16T05:20:54;31.83;;;19.87;;
15958;SDS011;8078;47.822;9.402;2023-05-16T05:23:19;35.03;;;21.20;;
15958;SDS011;8078;47.822;9.402;2023-05-16T05:25:45;38.80;;;22.50;;
15958;SDS011;8078;47.822;9.402;2023-05-16T05:28:11;36.77;;;22.43;;
15958;SDS011;8078;47.822;9.402;2023-05-16T05:30:37;36.27;;;22.53;;
15958;SDS011;8078;47.822;9.402;2023-05-16T05:33:02;36.77;;;23.13;;
15958;SDS011;8078;47.822;9.402;2023-05-16T05:35:28;40.67;;;23.93;;
15958;SDS011;8078;47.822;9.402;2023-05-16T05:37:53;46.60;;;25.50;;
15958;SDS011;8078;47.822;9.402;2023-05-16T05:40:19;44.80;;;24.40;;
15958;SDS011;8078;47.822;9.402;2023-05-16T05:42:44;46.70;;;25.83;;
15958;SDS011;8078;47.822;9.402;2023-05-16T05:45:10;49.97;;;27.53;;
15958;SDS011;8078;47.822;9.402;2023-05-16T05:47:35;51.60;;;26.67;;
15958;SDS011;8078;47.822;9.402;2023-05-16T05:50:02;50.20;;;27.13;;
15958;SDS011;8078;47.822;9.402;2023-05-16T05:52:28;47.53;;;27.30;;
15958;SDS011;8078;47.822;9.402;2023-05-16T05:54:53;49.47;;;27.37;;
15958;SDS011;8078;47.822;9.402;2023-05-16T05:57:19;49.97;;;27.97;;
15958;SDS011;8078;47.822;9.402;2023-05-16T05:59:45;51.53;;;27.43;;
15958;SDS011;8078;47.822;9.402;2023-05-16T06:02:10;53.07;;;28.20;;
15958;SDS011;8078;47.822;9.402;2023-05-16T06:04:36;51.50;;;29.27;;
15958;SDS011;8078;47.822;9.402;2023-05-16T06:07:02;54.87;;;28.10;;
15958;SDS011;8078;47.822;9.402;2023-05-16T06:09:28;55.60;;;28.97;;
15958;SDS011;8078;47.822;9.402;2023-05-16T06:11:54;50.73;;;27.90;;
15958;SDS011;8078;47.822;9.402;2023-05-16T06:14:20;50.90;;;27.87;;
15958;SDS011;8078;47.822;9.402;2023-05-16T06:16:45;53.83;;;29.07;;
15958;SDS011;8078;47.822;9.402;2023-05-16T06:19:11;54.03;;;27.87;;
15958;SDS011;8078;47.822;9.402;2023-05-16T06:21:39;53.33;;;28.67;;
15958;SDS011;8078;47.822;9.402;2023-05-16T06:24:05;54.80;;;28.80;;
15958;SDS011;8078;47.822;9.402;2023-05-16T06:26:32;52.13;;;28.07;;
15958;SDS011;8078;47.822;9.402;2023-05-16T06:28:57;53.47;;;27.73;;
15958;SDS011;8078;47.822;9.402;2023-05-16T06:31:23;53.57;;;29.00;;
15958;SDS011;8078;47.822;9.402;2023-05-16T06:33:48;51.63;;;28.73;;
15958;SDS011;8078;47.822;9.402;2023-05-16T06:36:14;50.63;;;28.97;;
15958;SDS011;8078;47.822;9.402;2023-05-16T06:38:40;54.07;;;27.87;;
15958;SDS011;8078;47.822;9.402;2023-05-16T06:41:05;49.67;;;28.03;;
15958;SDS011;8078;47.822;9.402;2023-05-16T06:43:31;53.10;;;28.97;;
15958;SDS011;8078;47.822;9.402;2023-05-16T06:45:56;53.63;;;30.30;;
15958;SDS011;8078;47.822;9.402;2023-05-16T06:48:22;52.20;;;27.40;;
15958;SDS011;8078;47.822;9.402;2023-05-16T06:50:48;47.93;;;25.80;;
15958;SDS011;8078;47.822;9.402;2023-05-16T06:53:16;50.90;;;29.40;;
15958;SDS011;8078;47.822;9.402;2023-05-16T06:55:42;48.40;;;28.93;;
15958;SDS011;8078;47.822;9.402;2023-05-16T06:58:07;45.70;;;27.53;;
15958;SDS011;8078;47.822;9.402;2023-05-16T07:00:33;44.50;;;26.77;;
15958;SDS011;8078;47.822;9.402;2023-05-16T07:02:58;43.00;;;26.07;;
15958;SDS011;8078;47.822;9.402;2023-05-16T07:05:24;48.20;;;25.73;;
15958;SDS011;8078;47.822;9.402;2023-05-16T07:07:49;40.07;;;25.73;;
15958;SDS011;8078;47.822;9.402;2023-05-16T07:10:15;39.07;;;23.60;;
15958;SDS011;8078;47.822;9.402;2023-05-16T07:12:41;38.93;;;23.90;;
15958;SDS011;8078;47.822;9.402;2023-05-16T07:15:07;40.47;;;22.97;;
15958;SDS011;8078;47.822;9.402;2023-05-16T07:17:33;42.20;;;25.60;;
15958;SDS011;8078;47.822;9.402;2023-05-16T07:19:59;44.53;;;26.57;;
15958;SDS011;8078;47.822;9.402;2023-05-16T07:22:24;36.20;;;23.27;;
15958;SDS011;8078;47.822;9.402;2023-05-16T07:24:50;40.23;;;25.43;;
15958;SDS011;8078;47.822;9.402;2023-05-16T07:27:18;42.07;;;23.53;;
15958;SDS011;8078;47.822;9.402;2023-05-16T07:29:43;42.27;;;25.37;;
15958;SDS011;8078;47.822;9.402;2023-05-16T07:32:09;35.80;;;23.53;;
15958;SDS011;8078;47.822;9.402;2023-05-16T07:34:35;39.00;;;24.00;;
15958;SDS011;8078;47.822;9.402;2023-05-16T07:37:00;38.20;;;24.33;;
15958;SDS011;8078;47.822;9.402;2023-05-16T07:39:26;32.13;;;21.37;;
15958;SDS011;8078;47.822;9.402;2023-05-16T07:41:51;30.03;;;21.50;;
15958;SDS011;8078;47.822;9.402;2023-05-16T07:44:17;31.67;;;20.73;;
15958;SDS011;8078;47.822;9.402;2023-05-16T07:46:42;34.20;;;21.37;;
15958;SDS011;8078;47.822;9.402;2023-05-16T07:49:08;32.60;;;21.60;;
15958;SDS011;8078;47.822;9.402;2023-05-16T07:51:34;31.30;;;20.93;;
15958;SDS011;8078;47.822;9.402;2023-05-16T07:54:00;30.40;;;22.53;;
15958;SDS011;8078;47.822;9.402;2023-05-16T07:56:26;30.33;;;21.43;;
15958;SDS011;8078;47.822;9.402;2023-05-16T07:58:51;30.60;;;20.80;;
15958;SDS011;8078;47.822;9.402;2023-05-16T08:01:17;31.77;;;21.13;;
15958;SDS011;8078;47.822;9.402;2023-05-16T08:03:44;30.00;;;20.30;;
15958;SDS011;8078;47.822;9.402;2023-05-16T08:06:10;32.80;;;21.13;;
15958;SDS011;8078;47.822;9.402;2023-05-16T08:08:35;29.40;;;21.17;;
15958;SDS011;8078;47.822;9.402;2023-05-16T08:11:01;31.50;;;21.30;;
15958;SDS011;8078;47.822;9.402;2023-05-16T08:13:27;30.10;;;21.37;;
15958;SDS011;8078;47.822;9.402;2023-05-16T08:15:53;30.87;;;22.50;;
15958;SDS011;8078;47.822;9.402;2023-05-16T08:18:18;33.53;;;22.57;;
15958;SDS011;8078;47.822;9.402;2023-05-16T08:20:44;29.40;;;20.93;;
15958;SDS011;8078;47.822;9.402;2023-05-16T08:23:09;30.43;;;21.40;;
15958;SDS011;8078;47.822;9.402;2023-05-16T08:25:35;31.03;;;21.37;;
15958;SDS011;8078;47.822;9.402;2023-05-16T08:28:00;30.52;;;21.17;;
15958;SDS011;8078;47.822;9.402;2023-05-16T08:30:26;27.63;;;21.10;;
15958;SDS011;8078;47.822;9.402;2023-05-16T08:32:52;26.63;;;19.00;;
15958;SDS011;8078;47.822;9.402;2023-05-16T08:35:18;28.00;;;20.33;;
15958;SDS011;8078;47.822;9.402;2023-05-16T08:37:43;30.60;;;20.27;;
15958;SDS011;8078;47.822;9.402;2023-05-16T08:40:09;27.42;;;19.55;;
15958;SDS011;8078;47.822;9.402;2023-05-16T08:42:36;33.00;;;21.50;;
15958;SDS011;8078;47.822;9.402;2023-05-16T08:45:01;32.00;;;21.07;;
15958;SDS011;8078;47.822;9.402;2023-05-16T08:47:30;29.70;;;20.63;;
15958;SDS011;8078;47.822;9.402;2023-05-16T08:49:56;28.83;;;20.00;;
15958;SDS011;8078;47.822;9.402;2023-05-16T08:52:23;29.63;;;21.40;;
15958;SDS011;8078;47.822;9.402;2023-05-16T08:54:52;30.80;;;20.83;;
15958;SDS011;8078;47.822;9.402;2023-05-16T08:57:18;30.67;;;21.23;;
15958;SDS011;8078;47.822;9.402;2023-05-16T08:59:44;35.83;;;21.67;;
15958;SDS011;8078;47.822;9.402;2023-05-16T09:02:10;34.80;;;22.50;;
15958;SDS011;8078;47.822;9.402;2023-05-16T09:04:36;34.93;;;22.30;;
15958;SDS011;8078;47.822;9.402;2023-05-16T09:07:02;33.70;;;22.23;;
15958;SDS011;8078;47.822;9.402;2023-05-16T09:09:27;36.87;;;22.63;;
15958;SDS011;8078;47.822;9.402;2023-05-16T09:11:54;35.50;;;22.33;;
15958;SDS011;8078;47.822;9.402;2023-05-16T09:14:20;40.37;;;24.80;;
15958;SDS011;8078;47.822;9.402;2023-05-16T09:17:05;36.97;;;23.57;;
15958;SDS011;8078;47.822;9.402;2023-05-16T09:19:40;36.13;;;23.20;;
15958;SDS011;8078;47.822;9.402;2023-05-16T09:22:10;35.37;;;23.77;;
15958;SDS011;8078;47.822;9.402;2023-05-16T09:24:43;42.03;;;24.20;;
15958;SDS011;8078;47.822;9.402;2023-05-16T09:27:10;45.83;;;25.70;;
15958;SDS011;8078;47.822;9.402;2023-05-16T09:29:40;41.60;;;25.37;;
15958;SDS011;8078;47.822;9.402;2023-05-16T09:32:13;45.63;;;25.60;;
15958;SDS011;8078;47.822;9.402;2023-05-16T09:34:43;45.33;;;26.33;;
15958;SDS011;8078;47.822;9.402;2023-05-16T09:37:12;46.47;;;28.07;;
15958;SDS011;8078;47.822;9.402;2023-05-16T09:39:39;49.53;;;27.70;;
15958;SDS011;8078;47.822;9.402;2023-05-16T09:42:14;47.47;;;29.17;;
15958;SDS011;8078;47.822;9.402;2023-05-16T09:44:44;51.03;;;30.50;;
15958;SDS011;8078;47.822;9.402;2023-05-16T09:47:14;49.07;;;29.60;;
15958;SDS011;8078;47.822;9.402;2023-05-16T09:49:42;54.17;;;29.17;;
15958;SDS011;8078;47.822;9.402;2023-05-16T09:52:08;47.73;;;28.37;;
15958;SDS011;8078;47.822;9.402;2023-05-16T09:54:34;51.87;;;29.33;;
15958;SDS011;8078;47.822;9.402;2023-05-16T09:57:00;55.37;;;30.23;;
15958;SDS011;8078;47.822;9.402;2023-05-16T09:59:29;53.90;;;30.90;;
15958;SDS011;8078;47.822;9.402;2023-05-16T10:01:59;54.87;;;31.20;;
15958;SDS011;8078;47.822;9.402;2023-05-16T10:04:25;58.97;;;31.37;;
15958;SDS011;8078;47.822;9.402;2023-05-16T10:06:51;51.03;;;29.50;;
15958;SDS011;8078;47.822;9.402;2023-05-16T10:09:21;51.57;;;28.03;;
15958;SDS011;8078;47.822;9.402;2023-05-16T10:11:47;52.77;;;30.03;;
15958;SDS011;8078;47.822;9.402;2023-05-16T10:14:18;47.03;;;27.60;;
15958;SDS011;8078;47.822;9.402;2023-05-16T10:16:45;53.13;;;29.50;;
15958;SDS011;8078;47.822;9.402;2023-05-16T10:19:12;48.33;;;28.03;;
15958;SDS011;8078;47.822;9.402;2023-05-16T10:21:39;52.90;;;29.10;;
15958;SDS011;8078;47.822;9.402;2023-05-16T10:24:07;51.67;;;29.70;;
15958;SDS011;8078;47.822;9.402;2023-05-16T10:26:35;55.47;;;30.70;;
15958;SDS011;8078;47.822;9.402;2023-05-16T10:29:01;53.97;;;30.63;;
15958;SDS011;8078;47.822;9.402;2023-05-16T10:31:28;61.93;;;32.23;;
15958;SDS011;8078;47.822;9.402;2023-05-16T10:33:54;58.03;;;31.77;;
15958;SDS011;8078;47.822;9.402;2023-05-16T10:36:21;56.23;;;30.27;;
15958;SDS011;8078;47.822;9.402;2023-05-16T10:38:47;50.50;;;28.63;;
15958;SDS011;8078;47.822;9.402;2023-05-16T10:41:14;61.70;;;32.63;;
15958;SDS011;8078;47.822;9.402;2023-05-16T10:43:43;56.73;;;29.73;;
15958;SDS011;8078;47.822;9.402;2023-05-16T10:46:10;53.43;;;29.97;;
15958;SDS011;8078;47.822;9.402;2023-05-16T10:48:37;56.43;;;31.70;;
15958;SDS011;8078;47.822;9.402;2023-05-16T10:53:51;56.80;;;32.23;;
15958;SDS011;8078;47.822;9.402;2023-05-16T10:56:28;56.30;;;30.57;;
15958;SDS011;8078;47.822;9.402;2023-05-16T10:58:57;55.07;;;30.97;;
15958;SDS011;8078;47.822;9.402;2023-05-16T11:06:48;51.67;;;29.27;;
15958;SDS011;8078;47.822;9.402;2023-05-16T11:14:23;46.27;;;26.00;;
15958;SDS011;8078;47.822;9.402;2023-05-16T11:16:50;46.00;;;26.73;;
15958;SDS011;8078;47.822;9.402;2023-05-16T11:25:08;41.17;;;24.23;;
15958;SDS011;8078;47.822;9.402;2023-05-16T11:27:35;42.73;;;25.23;;
15958;SDS011;8078;47.822;9.402;2023-05-16T11:30:11;44.73;;;24.00;;
15958;SDS011;8078;47.822;9.402;2023-05-16T11:32:40;43.93;;;24.73;;
15958;SDS011;8078;47.822;9.402;2023-05-16T11:35:08;44.87;;;26.40;;
15958;SDS011;8078;47.822;9.402;2023-05-16T11:37:35;40.73;;;25.23;;
15958;SDS011;8078;47.822;9.402;2023-05-16T11:40:07;40.67;;;24.23;;
15958;SDS011;8078;47.822;9.402;2023-05-16T11:42:38;38.30;;;23.80;;
15958;SDS011;8078;47.822;9.402;2023-05-16T11:47:44;41.07;;;23.77;;
15958;SDS011;8078;47.822;9.402;2023-05-16T11:50:17;38.00;;;24.37;;
15958;SDS011;8078;47.822;9.402;2023-05-16T11:52:45;41.33;;;24.63;;
15958;SDS011;8078;47.822;9.402;2023-05-16T11:55:21;34.43;;;22.63;;
15958;SDS011;8078;47.822;9.402;2023-05-16T11:57:52;40.50;;;23.43;;
15958;SDS011;8078;47.822;9.402;2023-05-16T12:00:19;35.60;;;22.47;;
15958;SDS011;8078;47.822;9.402;2023-05-16T12:02:46;38.63;;;23.80;;
15958;SDS011;8078;47.822;9.402;2023-05-16T12:05:13;34.50;;;21.03;;
15958;SDS011;8078;47.822;9.402;2023-05-16T12:07:44;36.90;;;21.20;;
15958;SDS011;8078;47.822;9.402;2023-05-16T12:10:11;34.13;;;20.67;;
15958;SDS011;8078;47.822;9.402;2023-05-16T12:12:39;31.70;;;21.73;;
15958;SDS011;8078;47.822;9.402;2023-05-16T12:15:08;36.93;;;21.37;;
15958;SDS011;8078;47.822;9.402;2023-05-16T12:17:34;33.53;;;20.60;;
15958;SDS011;8078;47.822;9.402;2023-05-16T12:20:01;31.53;;;20.43;;
15958;SDS011;8078;47.822;9.402;2023-05-16T12:22:31;29.17;;;20.53;;
15958;SDS011;8078;47.822;9.402;2023-05-16T12:24:58;33.83;;;21.27;;
15958;SDS011;8078;47.822;9.402;2023-05-16T12:27:24;33.30;;;20.63;;
15958;SDS011;8078;47.822;9.402;2023-05-16T12:29:51;29.47;;;20.00;;
15958;SDS011;8078;47.822;9.402;2023-05-16T12:32:18;27.50;;;20.13;;
15958;SDS011;8078;47.822;9.402;2023-05-16T12:34:50;34.03;;;20.00;;
15958;SDS011;8078;47.822;9.402;2023-05-16T12:37:17;32.03;;;18.87;;
15958;SDS011;8078;47.822;9.402;2023-05-16T12:39:44;28.47;;;18.63;;
15958;SDS011;8078;47.822;9.402;2023-05-16T12:42:11;28.77;;;18.83;;
15958;SDS011;8078;47.822;9.402;2023-05-16T12:44:38;27.27;;;19.10;;
15958;SDS011;8078;47.822;9.402;2023-05-16T12:47:11;28.07;;;18.57;;
15958;SDS011;8078;47.822;9.402;2023-05-16T12:49:44;24.10;;;17.43;;
15958;SDS011;8078;47.822;9.402;2023-05-16T12:52:15;24.63;;;17.43;;
15958;SDS011;8078;47.822;9.402;2023-05-16T12:54:44;26.07;;;16.67;;
15958;SDS011;8078;47.822;9.402;2023-05-16T12:57:09;23.40;;;16.07;;
15958;SDS011;8078;47.822;9.402;2023-05-16T12:59:35;26.47;;;18.27;;
15958;SDS011;8078;47.822;9.402;2023-05-16T13:02:01;23.93;;;16.77;;
15958;SDS011;8078;47.822;9.402;2023-05-16T13:04:27;24.73;;;16.33;;
15958;SDS011;8078;47.822;9.402;2023-05-16T13:06:53;24.93;;;16.57;;
15958;SDS011;8078;47.822;9.402;2023-05-16T13:09:19;24.13;;;17.13;;
15958;SDS011;8078;47.822;9.402;2023-05-16T13:11:45;23.00;;;16.40;;
15958;SDS011;8078;47.822;9.402;2023-05-16T13:14:11;25.30;;;16.13;;
15958;SDS011;8078;47.822;9.402;2023-05-16T13:16:36;23.83;;;16.20;;
15958;SDS011;8078;47.822;9.402;2023-05-16T13:19:02;22.80;;;16.57;;
15958;SDS011;8078;47.822;9.402;2023-05-16T13:21:29;21.93;;;15.93;;
15958;SDS011;8078;47.822;9.402;2023-05-16T13:23:55;20.80;;;15.23;;
15958;SDS011;8078;47.822;9.402;2023-05-16T13:26:21;19.97;;;15.40;;
15958;SDS011;8078;47.822;9.402;2023-05-16T13:28:47;23.07;;;15.43;;
15958;SDS011;8078;47.822;9.402;2023-05-16T13:31:16;23.10;;;15.80;;
15958;SDS011;8078;47.822;9.402;2023-05-16T13:33:42;21.77;;;15.73;;
15958;SDS011;8078;47.822;9.402;2023-05-16T13:36:08;20.57;;;15.13;;
15958;SDS011;8078;47.822;9.402;2023-05-16T13:38:34;20.20;;;14.43;;
15958;SDS011;8078;47.822;9.402;2023-05-16T13:41:00;19.93;;;14.87;;
15958;SDS011;8078;47.822;9.402;2023-05-16T13:43:25;19.83;;;15.00;;
15958;SDS011;8078;47.822;9.402;2023-05-16T13:45:51;20.93;;;15.47;;
15958;SDS011;8078;47.822;9.402;2023-05-16T13:48:16;20.33;;;14.83;;
15958;SDS011;8078;47.822;9.402;2023-05-16T13:50:43;20.67;;;15.20;;
15958;SDS011;8078;47.822;9.402;2023-05-16T13:53:09;22.47;;;15.87;;
15958;SDS011;8078;47.822;9.402;2023-05-16T13:55:34;22.77;;;14.30;;
15958;SDS011;8078;47.822;9.402;2023-05-16T13:58:00;19.23;;;15.07;;
15958;SDS011;8078;47.822;9.402;2023-05-16T14:00:26;20.37;;;14.60;;
15958;SDS011;8078;47.822;9.402;2023-05-16T14:02:53;19.70;;;15.40;;
15958;SDS011;8078;47.822;9.402;2023-05-16T14:05:18;21.57;;;15.37;;
15958;SDS011;8078;47.822;9.402;2023-05-16T14:07:44;21.57;;;15.30;;
15958;SDS011;8078;47.822;9.402;2023-05-16T14:10:10;20.27;;;13.57;;
15958;SDS011;8078;47.822;9.402;2023-05-16T14:12:35;19.87;;;13.93;;
15958;SDS011;8078;47.822;9.402;2023-05-16T14:15:02;22.00;;;13.87;;
15958;SDS011;8078;47.822;9.402;2023-05-16T14:17:28;20.53;;;15.00;;
15958;SDS011;8078;47.822;9.402;2023-05-16T14:19:54;20.63;;;14.47;;
15958;SDS011;8078;47.822;9.402;2023-05-16T14:22:20;20.53;;;14.47;;
15958;SDS011;8078;47.822;9.402;2023-05-16T14:24:45;22.50;;;15.00;;
15958;SDS011;8078;47.822;9.402;2023-05-16T14:27:11;21.00;;;14.87;;
15958;SDS011;8078;47.822;9.402;2023-05-16T14:29:36;20.00;;;15.00;;
15958;SDS011;8078;47.822;9.402;2023-05-16T14:32:02;21.70;;;14.40;;
15958;SDS011;8078;47.822;9.402;2023-05-16T14:34:27;18.80;;;13.97;;
15958;SDS011;8078;47.822;9.402;2023-05-16T14:36:53;22.73;;;14.33;;
15958;SDS011;8078;47.822;9.402;2023-05-16T14:39:18;24.93;;;15.70;;
15958;SDS011;8078;47.822;9.402;2023-05-16T14:41:44;21.17;;;15.43;;
15958;SDS011;8078;47.822;9.402;2023-05-16T14:44:10;23.07;;;14.63;;
15958;SDS011;8078;47.822;9.402;2023-05-16T14:46:36;22.97;;;14.73;;
15958;SDS011;8078;47.822;9.402;2023-05-16T14:49:02;21.50;;;15.53;;
15958;SDS011;8078;47.822;9.402;2023-05-16T14:51:27;22.47;;;16.00;;
15958;SDS011;8078;47.822;9.402;2023-05-16T14:53:53;24.70;;;17.03;;
15958;SDS011;8078;47.822;9.402;2023-05-16T14:56:19;25.40;;;16.83;;
15958;SDS011;8078;47.822;9.402;2023-05-16T14:58:45;28.50;;;17.33;;
15958;SDS011;8078;47.822;9.402;2023-05-16T15:01:11;29.13;;;16.70;;
15958;SDS011;8078;47.822;9.402;2023-05-16T15:03:36;27.70;;;17.27;;
15958;SDS011;8078;47.822;9.402;2023-05-16T15:06:02;29.80;;;17.73;;
15958;SDS011;8078;47.822;9.402;2023-05-16T15:08:31;32.67;;;19.03;;
15958;SDS011;8078;47.822;9.402;2023-05-16T15:10:58;30.30;;;18.80;;
15958;SDS011;8078;47.822;9.402;2023-05-16T15:13:24;29.00;;;17.73;;
15958;SDS011;8078;47.822;9.402;2023-05-16T15:15:50;28.20;;;16.63;;
15958;SDS011;8078;47.822;9.402;2023-05-16T15:18:15;32.23;;;18.23;;